createdAt,value
2017-09-08T00:00:35.332Z,80.63
2017-09-08T00:01:15.911Z,80.63
2017-09-08T00:01:56.463Z,80.44
2017-09-08T00:02:37.016Z,80.44
2017-09-08T00:03:17.583Z,81.21
2017-09-08T00:03:58.143Z,80.69
2017-09-08T00:04:38.706Z,81.3
2017-09-08T00:05:19.283Z,81.4
2017-09-08T00:05:59.843Z,81.11
2017-09-08T00:06:40.407Z,81.3
2017-09-08T00:07:20.991Z,81.21
2017-09-08T00:08:01.573Z,80.69
2017-09-08T00:08:42.170Z,80.82
2017-09-08T00:09:22.729Z,80.88
2017-09-08T00:10:03.286Z,80.79
2017-09-08T00:10:43.849Z,80.79
2017-09-08T00:11:24.416Z,80.79
2017-09-08T00:12:04.984Z,80.98
2017-09-08T00:12:45.548Z,81.16
2017-09-08T00:13:26.116Z,81.07
2017-09-08T00:14:06.707Z,80.69
2017-09-08T00:14:47.274Z,81.16
2017-09-08T00:15:27.857Z,80.82
2017-09-08T00:16:08.407Z,81.26
2017-09-08T00:16:48.973Z,81.07
2017-09-08T00:17:29.553Z,81.16
2017-09-08T00:18:10.116Z,81.16
2017-09-08T00:18:50.696Z,80.98
2017-09-08T00:19:31.253Z,81.07
2017-09-08T00:20:11.834Z,81.16
2017-09-08T00:20:52.404Z,81.55
2017-09-08T00:21:32.977Z,81.36
2017-09-08T00:22:16.049Z,80.88
2017-09-08T00:22:56.611Z,80.88
2017-09-08T00:23:37.181Z,81.07
2017-09-08T00:24:17.764Z,80.79
2017-09-08T00:24:58.322Z,80.69
2017-09-08T00:25:38.884Z,81.36
2017-09-08T00:26:19.454Z,81.45
2017-09-08T00:27:00.014Z,80.79
2017-09-08T00:27:40.576Z,80.69
2017-09-08T00:28:21.146Z,80.88
2017-09-08T00:29:01.705Z,80.5
2017-09-08T00:29:42.274Z,81.07
2017-09-08T00:30:22.861Z,80.88
2017-09-08T00:31:03.429Z,80.5
2017-09-08T00:31:43.992Z,80.88
2017-09-08T00:32:24.581Z,80.79
2017-09-08T00:33:05.163Z,80.88
2017-09-08T00:33:45.727Z,81.07
2017-09-08T00:34:26.294Z,80.88
2017-09-08T00:35:06.899Z,81.07
2017-09-08T00:35:47.499Z,80.88
2017-09-08T00:36:28.095Z,80.98
2017-09-08T00:37:08.686Z,80.59
2017-09-08T00:37:49.261Z,80.79
2017-09-08T00:38:29.842Z,81.45
2017-09-08T00:39:10.446Z,81.16
2017-09-08T00:39:51.005Z,80.98
2017-09-08T00:40:31.594Z,81.16
2017-09-08T00:41:12.159Z,81.16
2017-09-08T00:41:52.711Z,81.36
2017-09-08T00:42:33.286Z,81.07
2017-09-08T00:43:13.843Z,81.65
2017-09-08T00:43:54.416Z,81.26
2017-09-08T00:44:34.983Z,80.79
2017-09-08T00:45:15.543Z,81.36
2017-09-08T00:45:56.119Z,81.55
2017-09-08T00:46:36.695Z,81.65
2017-09-08T00:47:17.260Z,81.65
2017-09-08T00:47:57.832Z,81.74
2017-09-08T00:48:38.391Z,81.55
2017-09-08T00:49:18.951Z,81.65
2017-09-08T00:49:59.556Z,81.74
2017-09-08T00:50:40.124Z,81.36
2017-09-08T00:51:20.709Z,81.36
2017-09-08T00:52:01.320Z,81.55
2017-09-08T00:52:41.909Z,81.55
2017-09-08T00:53:22.486Z,81.55
2017-09-08T00:54:03.050Z,81.74
2017-09-08T00:54:43.609Z,81.55
2017-09-08T00:55:24.176Z,81.74
2017-09-08T00:56:04.732Z,81.93
2017-09-08T00:56:45.294Z,82.12
2017-09-08T00:57:25.864Z,82.12
2017-09-08T00:58:06.470Z,82.03
2017-09-08T00:58:47.032Z,82.12
2017-09-08T00:59:27.647Z,81.74
2017-09-08T01:00:08.227Z,81.65
2017-09-08T01:00:48.785Z,81.45
2017-09-08T01:01:29.387Z,81.84
2017-09-08T01:02:09.957Z,82.22
2017-09-08T01:02:50.528Z,81.55
2017-09-08T01:03:31.087Z,81.55
2017-09-08T01:04:11.670Z,81.65
2017-09-08T01:04:52.234Z,82.03
2017-09-08T01:05:32.812Z,81.84
2017-09-08T01:06:13.383Z,81.74
2017-09-08T01:06:53.955Z,82.31
2017-09-08T01:07:34.511Z,82.03
2017-09-08T01:08:15.086Z,82.03
2017-09-08T01:08:55.676Z,82.03
2017-09-08T01:09:36.264Z,82.41
2017-09-08T01:10:16.826Z,81.93
2017-09-08T01:10:57.400Z,82.22
2017-09-08T01:11:37.964Z,82.12
2017-09-08T01:12:18.543Z,81.84
2017-09-08T01:12:59.124Z,82.28
2017-09-08T01:13:39.684Z,81.99
2017-09-08T01:14:20.263Z,82.03
2017-09-08T01:15:00.824Z,82.37
2017-09-08T01:15:41.404Z,82.65
2017-09-08T01:16:22.015Z,82.84
2017-09-08T01:17:02.581Z,82.28
2017-09-08T01:17:43.153Z,81.93
2017-09-08T01:18:23.732Z,82.08
2017-09-08T01:19:04.305Z,81.89
2017-09-08T01:19:44.861Z,81.89
2017-09-08T01:20:25.463Z,82.08
2017-09-08T01:21:06.047Z,82.56
2017-09-08T01:21:46.609Z,82.84
2017-09-08T01:22:27.194Z,82.31
2017-09-08T01:23:07.781Z,82.37
2017-09-08T01:23:48.350Z,82.28
2017-09-08T01:24:28.965Z,82.37
2017-09-08T01:25:09.536Z,82.28
2017-09-08T01:25:50.104Z,82.75
2017-09-08T01:26:30.717Z,82.28
2017-09-08T01:27:11.316Z,81.99
2017-09-08T01:27:51.890Z,82.75
2017-09-08T01:28:32.471Z,82.46
2017-09-08T01:29:13.037Z,82.84
2017-09-08T01:29:53.597Z,82.28
2017-09-08T01:30:34.188Z,82.65
2017-09-08T01:31:14.752Z,82.65
2017-09-08T01:31:55.318Z,82.84
2017-09-08T01:32:35.887Z,82.75
2017-09-08T01:33:16.481Z,82.75
2017-09-08T01:33:57.056Z,82.65
2017-09-08T01:34:37.606Z,82.75
2017-09-08T01:35:18.175Z,82.56
2017-09-08T01:35:58.734Z,82.65
2017-09-08T01:36:39.297Z,82.65
2017-09-08T01:37:19.860Z,82.37
2017-09-08T01:38:00.459Z,82.46
2017-09-08T01:38:41.038Z,82.75
2017-09-08T01:39:21.605Z,82.65
2017-09-08T01:40:02.166Z,82.75
2017-09-08T01:40:42.739Z,82.46
2017-09-08T01:41:23.299Z,82.65
2017-09-08T01:42:03.870Z,82.84
2017-09-08T01:42:44.436Z,82.94
2017-09-08T01:43:25.006Z,82.28
2017-09-08T01:44:05.591Z,82.94
2017-09-08T01:44:46.165Z,82.94
2017-09-08T01:45:26.730Z,82.94
2017-09-08T01:46:07.303Z,82.94
2017-09-08T01:46:47.882Z,82.94
2017-09-08T01:47:28.449Z,82.94
2017-09-08T01:48:09.014Z,82.56
2017-09-08T01:48:49.579Z,83.23
2017-09-08T01:49:30.164Z,82.84
2017-09-08T01:50:10.725Z,83.51
2017-09-08T01:50:51.285Z,83.13
2017-09-08T01:51:31.852Z,82.94
2017-09-08T01:52:12.432Z,83.33
2017-09-08T01:52:53.000Z,83.33
2017-09-08T01:53:33.581Z,83.13
2017-09-08T01:54:14.183Z,83.42
2017-09-08T01:54:54.741Z,83.23
2017-09-08T01:55:35.306Z,83.23
2017-09-08T01:56:15.858Z,83.23
2017-09-08T01:56:56.439Z,83.42
2017-09-08T01:57:37.000Z,82.56
2017-09-08T01:58:17.564Z,82.75
2017-09-08T01:58:58.150Z,83.13
2017-09-08T01:59:38.727Z,82.56
2017-09-08T02:00:19.298Z,83.13
2017-09-08T02:00:59.874Z,83.23
2017-09-08T02:01:40.439Z,83.42
2017-09-08T02:02:21.019Z,83.51
2017-09-08T02:03:01.586Z,83.13
2017-09-08T02:03:42.163Z,82.94
2017-09-08T02:04:22.723Z,82.94
2017-09-08T02:05:03.282Z,82.94
2017-09-08T02:05:43.868Z,82.75
2017-09-08T02:06:24.448Z,83.13
2017-09-08T02:07:05.021Z,82.46
2017-09-08T02:07:45.595Z,83.23
2017-09-08T02:08:26.190Z,82.65
2017-09-08T02:09:06.754Z,83.42
2017-09-08T02:09:47.317Z,83.42
2017-09-08T02:10:27.870Z,83.51
2017-09-08T02:11:08.472Z,83.13
2017-09-08T02:11:49.038Z,83.42
2017-09-08T02:12:29.625Z,83.23
2017-09-08T02:13:10.199Z,83.23
2017-09-08T02:13:50.762Z,82.46
2017-09-08T02:14:31.321Z,82.56
2017-09-08T02:15:11.890Z,83.33
2017-09-08T02:15:52.501Z,83.04
2017-09-08T02:16:33.076Z,83.61
2017-09-08T02:17:13.661Z,83.33
2017-09-08T02:17:54.220Z,83.33
2017-09-08T02:18:34.808Z,83.42
2017-09-08T02:19:15.378Z,82.75
2017-09-08T02:19:55.960Z,82.71
2017-09-08T02:20:36.539Z,82.84
2017-09-08T02:21:17.102Z,82.94
2017-09-08T02:21:57.658Z,83.13
2017-09-08T02:22:38.304Z,82.75
2017-09-08T02:23:18.888Z,82.94
2017-09-08T02:23:59.457Z,83.13
2017-09-08T02:24:40.027Z,82.71
2017-09-08T02:25:20.595Z,82.61
2017-09-08T02:26:01.193Z,82.94
2017-09-08T02:26:41.784Z,83
2017-09-08T02:27:22.353Z,83.13
2017-09-08T02:28:02.918Z,82.9
2017-09-08T02:28:43.475Z,83.42
2017-09-08T02:29:24.060Z,83.61
2017-09-08T02:30:04.621Z,83.7
2017-09-08T02:30:45.169Z,83.51
2017-09-08T02:31:25.764Z,83.33
2017-09-08T02:32:06.332Z,82.84
2017-09-08T02:32:46.936Z,82.75
2017-09-08T02:33:27.501Z,82.81
2017-09-08T02:34:08.124Z,82.9
2017-09-08T02:34:48.753Z,82.65
2017-09-08T02:35:29.309Z,82.75
2017-09-08T02:36:09.877Z,83.04
2017-09-08T02:36:50.452Z,83.13
2017-09-08T02:37:31.018Z,83.33
2017-09-08T02:38:11.602Z,83.13
2017-09-08T02:38:52.162Z,82.9
2017-09-08T02:39:32.726Z,83.28
2017-09-08T02:40:13.307Z,82.9
2017-09-08T02:40:53.896Z,82.52
2017-09-08T02:41:34.490Z,83.38
2017-09-08T02:42:15.060Z,83.38
2017-09-08T02:42:55.626Z,83.42
2017-09-08T02:43:36.197Z,83.28
2017-09-08T02:44:16.775Z,83.47
2017-09-08T02:44:57.335Z,83.09
2017-09-08T02:45:37.905Z,83.38
2017-09-08T02:46:18.480Z,83.28
2017-09-08T02:46:59.052Z,82.9
2017-09-08T02:47:39.617Z,83.18
2017-09-08T02:48:20.185Z,83.28
2017-09-08T02:49:00.738Z,83
2017-09-08T02:49:41.294Z,82.81
2017-09-08T02:50:21.858Z,83.09
2017-09-08T02:51:02.486Z,83.57
2017-09-08T02:51:43.049Z,83.47
2017-09-08T02:52:23.613Z,83.95
2017-09-08T02:53:04.203Z,83.47
2017-09-08T02:53:44.786Z,83.57
2017-09-08T02:54:25.408Z,83.47
2017-09-08T02:55:05.986Z,83.95
2017-09-08T02:55:46.553Z,83.67
2017-09-08T02:56:27.124Z,83.67
2017-09-08T02:57:07.687Z,83.67
2017-09-08T02:57:48.240Z,83.86
2017-09-08T02:58:28.818Z,83.67
2017-09-08T02:59:09.383Z,83.67
2017-09-08T02:59:49.949Z,83.57
2017-09-08T03:00:30.566Z,83.67
2017-09-08T03:01:11.127Z,83.57
2017-09-08T03:01:51.706Z,83.86
2017-09-08T03:02:32.306Z,83.86
2017-09-08T03:03:12.909Z,83.86
2017-09-08T03:03:53.547Z,83.57
2017-09-08T03:04:34.125Z,83.76
2017-09-08T03:05:14.796Z,83.76
2017-09-08T03:05:55.363Z,83.86
2017-09-08T03:06:35.975Z,83.57
2017-09-08T03:07:16.564Z,83.57
2017-09-08T03:07:57.149Z,84.05
2017-09-08T03:08:37.725Z,83.95
2017-09-08T03:09:18.284Z,83.95
2017-09-08T03:09:58.854Z,84.05
2017-09-08T03:10:39.416Z,84.05
2017-09-08T03:11:19.978Z,84.33
2017-09-08T03:12:00.554Z,84.05
2017-09-08T03:12:41.124Z,84.14
2017-09-08T03:13:21.689Z,84.05
2017-09-08T03:14:02.310Z,84.62
2017-09-08T03:14:42.883Z,84.05
2017-09-08T03:15:23.462Z,84.23
2017-09-08T03:16:04.032Z,84.05
2017-09-08T03:16:44.607Z,84.05
2017-09-08T03:17:25.202Z,84.05
2017-09-08T03:18:05.768Z,84.72
2017-09-08T03:18:46.358Z,84.72
2017-09-08T03:19:26.923Z,84.52
2017-09-08T03:20:07.480Z,84.62
2017-09-08T03:20:48.044Z,84.81
2017-09-08T03:21:28.599Z,84.91
2017-09-08T03:22:09.216Z,84.81
2017-09-08T03:22:49.777Z,84.91
2017-09-08T03:23:30.354Z,84.62
2017-09-08T03:24:10.978Z,84.72
2017-09-08T03:24:51.560Z,84.72
2017-09-08T03:25:32.130Z,84.72
2017-09-08T03:26:12.696Z,84.91
2017-09-08T03:26:53.259Z,84.43
2017-09-08T03:27:33.828Z,84.43
2017-09-08T03:28:14.378Z,84.43
2017-09-08T03:28:54.948Z,84.81
2017-09-08T03:29:35.550Z,84.72
2017-09-08T03:30:16.137Z,84.72
2017-09-08T03:30:56.692Z,84.72
2017-09-08T03:31:37.256Z,84.81
2017-09-08T03:32:17.877Z,84.81
2017-09-08T03:32:58.459Z,84.62
2017-09-08T03:33:39.055Z,84.72
2017-09-08T03:34:19.613Z,84.81
2017-09-08T03:35:00.198Z,84.91
2017-09-08T03:35:40.778Z,84.72
2017-09-08T03:36:21.364Z,84.62
2017-09-08T03:37:01.945Z,84.62
2017-09-08T03:37:42.536Z,84.72
2017-09-08T03:38:23.082Z,84.43
2017-09-08T03:39:03.664Z,84.43
2017-09-08T03:39:44.235Z,84.81
2017-09-08T03:40:24.794Z,84.72
2017-09-08T03:41:05.394Z,84.72
2017-09-08T03:41:45.989Z,84.91
2017-09-08T03:42:26.566Z,84.62
2017-09-08T03:43:07.149Z,84.43
2017-09-08T03:43:47.717Z,84.72
2017-09-08T03:44:28.294Z,84.72
2017-09-08T03:45:08.855Z,85.1
2017-09-08T03:45:49.450Z,85.1
2017-09-08T03:46:30.025Z,85
2017-09-08T03:47:10.605Z,85
2017-09-08T03:47:51.172Z,85
2017-09-08T03:48:31.764Z,85.19
2017-09-08T03:49:12.328Z,85
2017-09-08T03:49:52.894Z,84.52
2017-09-08T03:50:33.446Z,84.81
2017-09-08T03:51:14.009Z,84.72
2017-09-08T03:51:54.583Z,84.81
2017-09-08T03:52:35.162Z,84.81
2017-09-08T03:53:15.753Z,84.72
2017-09-08T03:53:56.324Z,84.91
2017-09-08T03:54:36.888Z,85.1
2017-09-08T03:55:17.460Z,84.91
2017-09-08T03:55:58.047Z,84.72
2017-09-08T03:56:38.613Z,84.62
2017-09-08T03:57:19.207Z,84.81
2017-09-08T03:57:59.777Z,84.72
2017-09-08T03:58:40.376Z,84.81
2017-09-08T03:59:20.944Z,84.62
2017-09-08T04:00:01.570Z,84.81
2017-09-08T04:00:42.159Z,84.33
2017-09-08T04:01:22.765Z,84.91
2017-09-08T04:02:03.334Z,84.76
2017-09-08T04:02:43.926Z,84.72
2017-09-08T04:03:24.486Z,84.81
2017-09-08T04:04:05.035Z,85
2017-09-08T04:04:45.619Z,85
2017-09-08T04:05:26.190Z,85.1
2017-09-08T04:06:06.770Z,85.1
2017-09-08T04:06:47.362Z,85
2017-09-08T04:07:27.917Z,85.1
2017-09-08T04:08:08.503Z,84.91
2017-09-08T04:08:49.109Z,85.29
2017-09-08T04:09:29.667Z,84.91
2017-09-08T04:10:10.267Z,84.91
2017-09-08T04:10:50.832Z,85.38
2017-09-08T04:11:31.399Z,84.72
2017-09-08T04:12:11.963Z,84.91
2017-09-08T04:12:52.554Z,84.91
2017-09-08T04:13:33.110Z,84.91
2017-09-08T04:14:13.670Z,84.91
2017-09-08T04:14:54.266Z,84.72
2017-09-08T04:15:34.838Z,85.29
2017-09-08T04:16:15.412Z,85.38
2017-09-08T04:16:55.984Z,85.29
2017-09-08T04:17:36.568Z,85.48
2017-09-08T04:18:17.127Z,85.48
2017-09-08T04:18:57.704Z,85.38
2017-09-08T04:19:38.261Z,85.29
2017-09-08T04:20:18.836Z,85.1
2017-09-08T04:20:59.394Z,85.48
2017-09-08T04:21:40.000Z,85.67
2017-09-08T04:22:20.543Z,85.52
2017-09-08T04:23:01.138Z,85.38
2017-09-08T04:23:41.661Z,84.91
2017-09-08T04:24:22.239Z,85.1
2017-09-08T04:25:02.861Z,85.1
2017-09-08T04:25:43.417Z,85
2017-09-08T04:26:24.002Z,84.95
2017-09-08T04:27:04.577Z,85.1
2017-09-08T04:27:45.166Z,85.1
2017-09-08T04:28:25.743Z,85.1
2017-09-08T04:29:06.302Z,85.29
2017-09-08T04:29:46.888Z,85.38
2017-09-08T04:30:27.460Z,85
2017-09-08T04:31:08.053Z,85.52
2017-09-08T04:31:48.619Z,85.1
2017-09-08T04:32:29.217Z,85.1
2017-09-08T04:33:09.780Z,85.62
2017-09-08T04:33:50.343Z,85.1
2017-09-08T04:34:30.915Z,85.05
2017-09-08T04:35:11.491Z,85.14
2017-09-08T04:35:52.077Z,84.95
2017-09-08T04:36:32.707Z,85.19
2017-09-08T04:37:13.291Z,85.05
2017-09-08T04:37:53.889Z,85.14
2017-09-08T04:38:34.452Z,84.91
2017-09-08T04:39:15.042Z,84.85
2017-09-08T04:39:55.623Z,85.14
2017-09-08T04:40:36.181Z,85.24
2017-09-08T04:41:16.790Z,85.14
2017-09-08T04:41:57.354Z,85.14
2017-09-08T04:42:37.981Z,85
2017-09-08T04:43:18.544Z,84.95
2017-09-08T04:43:59.121Z,84.91
2017-09-08T04:44:39.697Z,85.48
2017-09-08T04:45:20.260Z,85.29
2017-09-08T04:46:00.849Z,85.29
2017-09-08T04:46:41.430Z,85.33
2017-09-08T04:47:22.006Z,85.1
2017-09-08T04:48:02.615Z,84.95
2017-09-08T04:48:43.181Z,85.05
2017-09-08T04:49:23.759Z,85.1
2017-09-08T04:50:04.337Z,85.24
2017-09-08T04:50:44.915Z,84.95
2017-09-08T04:51:25.564Z,84.95
2017-09-08T04:52:06.068Z,84.66
2017-09-08T04:52:46.623Z,84.76
2017-09-08T04:53:27.221Z,84.66
2017-09-08T04:54:07.796Z,84.76
2017-09-08T04:54:48.361Z,84.85
2017-09-08T04:55:28.919Z,84.95
2017-09-08T04:56:09.482Z,84.95
2017-09-08T04:56:50.046Z,84.95
2017-09-08T04:57:30.612Z,84.76
2017-09-08T04:58:11.176Z,84.85
2017-09-08T04:58:51.767Z,84.76
2017-09-08T04:59:32.337Z,84.95
2017-09-08T05:00:12.901Z,84.76
2017-09-08T05:00:53.457Z,84.76
2017-09-08T05:01:34.023Z,84.66
2017-09-08T05:02:14.594Z,84.72
2017-09-08T05:02:55.166Z,84.72
2017-09-08T05:03:35.738Z,84.66
2017-09-08T05:04:16.332Z,85.1
2017-09-08T05:04:56.918Z,85.1
2017-09-08T05:05:37.508Z,84.91
2017-09-08T05:06:18.061Z,85.1
2017-09-08T05:06:58.629Z,85.1
2017-09-08T05:07:39.192Z,84.91
2017-09-08T05:08:19.753Z,85.19
2017-09-08T05:09:00.323Z,84.91
2017-09-08T05:09:40.886Z,84.91
2017-09-08T05:10:21.452Z,85
2017-09-08T05:11:02.009Z,85.14
2017-09-08T05:11:42.568Z,84.76
2017-09-08T05:12:23.158Z,85.42
2017-09-08T05:13:03.729Z,84.85
2017-09-08T05:13:44.285Z,85.05
2017-09-08T05:14:24.863Z,85.52
2017-09-08T05:15:05.422Z,85.52
2017-09-08T05:15:46.003Z,85.33
2017-09-08T05:16:26.560Z,85.14
2017-09-08T05:17:07.171Z,84.85
2017-09-08T05:17:47.719Z,84.95
2017-09-08T05:18:28.285Z,85.14
2017-09-08T05:19:08.851Z,84.95
2017-09-08T05:19:49.408Z,84.95
2017-09-08T05:20:29.996Z,85.14
2017-09-08T05:21:10.583Z,84.76
2017-09-08T05:21:51.147Z,85.14
2017-09-08T05:22:31.711Z,85.05
2017-09-08T05:23:12.281Z,84.95
2017-09-08T05:23:52.858Z,84.76
2017-09-08T05:24:33.462Z,85.33
2017-09-08T05:25:14.032Z,85.14
2017-09-08T05:25:54.600Z,85.14
2017-09-08T05:26:35.175Z,85.14
2017-09-08T05:27:15.752Z,85.33
2017-09-08T05:27:56.317Z,85.14
2017-09-08T05:28:36.907Z,84.95
2017-09-08T05:29:17.498Z,84.85
2017-09-08T05:29:58.048Z,85.05
2017-09-08T05:30:38.619Z,85.14
2017-09-08T05:31:19.201Z,84.95
2017-09-08T05:31:59.790Z,84.95
2017-09-08T05:32:40.368Z,84.95
2017-09-08T05:33:20.934Z,84.95
2017-09-08T05:34:01.505Z,84.85
2017-09-08T05:34:42.067Z,85.14
2017-09-08T05:35:22.632Z,85.42
2017-09-08T05:36:03.205Z,85.52
2017-09-08T05:36:43.786Z,85.24
2017-09-08T05:37:24.346Z,85.33
2017-09-08T05:38:04.914Z,85.52
2017-09-08T05:38:45.499Z,85.33
2017-09-08T05:39:26.147Z,85.62
2017-09-08T05:40:06.705Z,85.42
2017-09-08T05:40:47.282Z,85.71
2017-09-08T05:41:27.837Z,85.42
2017-09-08T05:42:08.391Z,85.62
2017-09-08T05:42:48.972Z,85.71
2017-09-08T05:43:29.590Z,85.52
2017-09-08T05:44:10.158Z,85.62
2017-09-08T05:44:50.739Z,85.62
2017-09-08T05:45:31.305Z,85.62
2017-09-08T05:46:11.877Z,85.62
2017-09-08T05:46:52.462Z,85.62
2017-09-08T05:47:33.060Z,85.33
2017-09-08T05:48:13.632Z,85.42
2017-09-08T05:48:54.197Z,85.71
2017-09-08T05:49:34.771Z,85.62
2017-09-08T05:50:15.364Z,85.42
2017-09-08T05:50:55.947Z,85.42
2017-09-08T05:51:37.033Z,85.42
2017-09-08T05:52:17.460Z,85.62
2017-09-08T05:52:58.018Z,85.33
2017-09-08T05:53:38.605Z,85.62
2017-09-08T05:54:19.152Z,85.62
2017-09-08T05:54:59.752Z,86.1
2017-09-08T05:55:40.318Z,85.81
2017-09-08T05:56:20.891Z,86.1
2017-09-08T05:57:01.679Z,86.1
2017-09-08T05:57:42.234Z,85.9
2017-09-08T05:58:22.830Z,85.9
2017-09-08T05:59:03.402Z,86.57
2017-09-08T05:59:43.982Z,86.57
2017-09-08T06:00:24.662Z,86.47
2017-09-08T06:01:05.252Z,86.47
2017-09-08T06:01:45.851Z,86.76
2017-09-08T06:02:26.566Z,86.67
2017-09-08T06:03:07.630Z,86.67
2017-09-08T06:03:48.451Z,86.38
2017-09-08T06:04:28.990Z,86.57
2017-09-08T06:05:09.620Z,86.29
2017-09-08T06:05:50.300Z,86.67
2017-09-08T06:06:30.908Z,86.67
2017-09-08T06:07:11.457Z,86.1
2017-09-08T06:07:52.030Z,86.1
2017-09-08T06:08:32.624Z,86.29
2017-09-08T06:09:13.274Z,86.47
2017-09-08T06:09:53.853Z,86.47
2017-09-08T06:10:34.619Z,86.67
2017-09-08T06:11:15.282Z,86.57
2017-09-08T06:11:55.842Z,86.47
2017-09-08T06:12:36.401Z,86.57
2017-09-08T06:13:16.972Z,86.67
2017-09-08T06:13:57.529Z,86.29
2017-09-08T06:14:38.110Z,85.62
2017-09-08T06:15:18.729Z,86.29
2017-09-08T06:15:59.297Z,86.1
2017-09-08T06:16:39.849Z,85.81
2017-09-08T06:17:20.479Z,85.81
2017-09-08T06:18:01.043Z,85.71
2017-09-08T06:18:41.627Z,85.9
2017-09-08T06:19:22.199Z,85.81
2017-09-08T06:20:02.810Z,85.81
2017-09-08T06:20:43.370Z,86
2017-09-08T06:21:23.959Z,86.29
2017-09-08T06:22:04.569Z,86
2017-09-08T06:22:45.178Z,85.9
2017-09-08T06:23:25.738Z,85.9
2017-09-08T06:24:06.424Z,85.9
2017-09-08T06:24:47.061Z,85.81
2017-09-08T06:25:27.642Z,85.81
2017-09-08T06:26:08.282Z,86
2017-09-08T06:26:48.860Z,85.71
2017-09-08T06:27:30.048Z,86
2017-09-08T06:28:11.353Z,86.1
2017-09-08T06:28:51.922Z,85.9
2017-09-08T06:29:32.535Z,86
2017-09-08T06:30:13.110Z,85.81
2017-09-08T06:30:53.694Z,85.9
2017-09-08T06:31:34.255Z,86.1
2017-09-08T06:32:15.114Z,85.81
2017-09-08T06:32:55.649Z,86.1
2017-09-08T06:33:36.366Z,85.71
2017-09-08T06:34:16.942Z,85.71
2017-09-08T06:34:57.558Z,86
2017-09-08T06:35:38.492Z,85.9
2017-09-08T06:36:19.059Z,85.81
2017-09-08T06:36:59.792Z,86.1
2017-09-08T06:37:40.419Z,85.71
2017-09-08T06:38:21.071Z,85.33
2017-09-08T06:39:01.629Z,85.14
2017-09-08T06:39:42.202Z,85.24
2017-09-08T06:40:22.820Z,85.33
2017-09-08T06:41:03.682Z,85.24
2017-09-08T06:41:44.237Z,85.52
2017-09-08T06:42:24.988Z,85.14
2017-09-08T06:43:05.576Z,85.14
2017-09-08T06:43:46.344Z,85.24
2017-09-08T06:44:26.977Z,85.05
2017-09-08T06:45:07.537Z,85.38
2017-09-08T06:45:48.092Z,85.24
2017-09-08T06:46:28.688Z,85.14
2017-09-08T06:47:09.252Z,85.33
2017-09-08T06:47:49.826Z,85.33
2017-09-08T06:48:30.391Z,85.05
2017-09-08T06:49:10.971Z,84.95
2017-09-08T06:49:51.538Z,84.89
2017-09-08T06:50:32.116Z,84.95
2017-09-08T06:51:12.823Z,85.05
2017-09-08T06:51:53.424Z,84.76
2017-09-08T06:52:34.104Z,85.14
2017-09-08T06:53:14.660Z,84.95
2017-09-08T06:53:55.347Z,85.05
2017-09-08T06:54:35.927Z,85.28
2017-09-08T06:55:16.483Z,85.18
2017-09-08T06:55:57.110Z,85.05
2017-09-08T06:56:37.670Z,84.95
2017-09-08T06:57:18.266Z,85.33
2017-09-08T06:57:58.827Z,84.99
2017-09-08T06:58:39.414Z,85.14
2017-09-08T06:59:19.993Z,85.14
2017-09-08T07:00:00.570Z,84.95
2017-09-08T07:00:41.137Z,85.24
2017-09-08T07:01:21.713Z,85.05
2017-09-08T07:02:02.295Z,85.33
2017-09-08T07:02:42.851Z,84.95
2017-09-08T07:03:23.427Z,85.38
2017-09-08T07:04:04.017Z,84.99
2017-09-08T07:04:44.587Z,85.05
2017-09-08T07:05:25.153Z,85.18
2017-09-08T07:06:05.712Z,85.18
2017-09-08T07:06:46.285Z,85.57
2017-09-08T07:07:26.954Z,85.47
2017-09-08T07:08:07.524Z,85.57
2017-09-08T07:08:48.084Z,85.57
2017-09-08T07:09:28.652Z,85.57
2017-09-08T07:10:09.233Z,85.57
2017-09-08T07:10:49.818Z,85.57
2017-09-08T07:11:30.401Z,85.28
2017-09-08T07:12:10.979Z,85.38
2017-09-08T07:12:51.548Z,85.47
2017-09-08T07:13:32.112Z,85.28
2017-09-08T07:14:12.685Z,85.18
2017-09-08T07:14:53.514Z,85.18
2017-09-08T07:15:34.107Z,84.8
2017-09-08T07:16:14.692Z,84.89
2017-09-08T07:16:55.271Z,84.8
2017-09-08T07:17:35.852Z,85.18
2017-09-08T07:18:16.435Z,84.89
2017-09-08T07:18:57.112Z,84.89
2017-09-08T07:19:37.693Z,84.52
2017-09-08T07:20:18.274Z,84.52
2017-09-08T07:20:58.861Z,84.61
2017-09-08T07:21:39.793Z,84.8
2017-09-08T07:22:20.405Z,84.23
2017-09-08T07:23:00.970Z,84.42
2017-09-08T07:23:41.581Z,84.23
2017-09-08T07:24:22.186Z,84.32
2017-09-08T07:25:02.748Z,84.13
2017-09-08T07:25:43.309Z,84.23
2017-09-08T07:26:23.882Z,84.32
2017-09-08T07:27:04.458Z,84.13
2017-09-08T07:27:45.028Z,84.03
2017-09-08T07:28:25.597Z,83.75
2017-09-08T07:29:06.171Z,82.79
2017-09-08T07:29:46.761Z,83.17
2017-09-08T07:30:27.326Z,82.98
2017-09-08T07:31:07.911Z,82.98
2017-09-08T07:31:48.474Z,83.5
2017-09-08T07:32:29.041Z,83.65
2017-09-08T07:33:09.624Z,83.37
2017-09-08T07:33:50.187Z,83.22
2017-09-08T07:34:30.758Z,82.79
2017-09-08T07:35:11.319Z,82.98
2017-09-08T07:35:52.004Z,83.12
2017-09-08T07:36:32.576Z,83.12
2017-09-08T07:37:13.175Z,83.03
2017-09-08T07:37:53.784Z,82.93
2017-09-08T07:38:34.392Z,83.5
2017-09-08T07:39:14.952Z,82.83
2017-09-08T07:39:55.545Z,83.12
2017-09-08T07:40:36.137Z,82.93
2017-09-08T07:41:16.748Z,83.03
2017-09-08T07:41:57.367Z,83.03
2017-09-08T07:42:37.944Z,83.03
2017-09-08T07:43:18.516Z,82.74
2017-09-08T07:43:59.099Z,82.64
2017-09-08T07:44:39.694Z,82.35
2017-09-08T07:45:20.275Z,82.17
2017-09-08T07:46:00.911Z,82.17
2017-09-08T07:46:41.498Z,82.07
2017-09-08T07:47:22.060Z,82.26
2017-09-08T07:48:02.624Z,81.78
2017-09-08T07:48:43.223Z,81.68
2017-09-08T07:49:23.812Z,81.4
2017-09-08T07:50:04.386Z,81.78
2017-09-08T07:50:44.943Z,81.78
2017-09-08T07:51:25.512Z,81.49
2017-09-08T07:52:06.093Z,81.59
2017-09-08T07:52:46.660Z,81.68
2017-09-08T07:53:27.254Z,81.02
2017-09-08T07:54:07.786Z,81.49
2017-09-08T07:54:48.376Z,81.11
2017-09-08T07:55:28.941Z,81.15
2017-09-08T07:56:09.524Z,80.73
2017-09-08T07:56:50.117Z,81.02
2017-09-08T07:57:30.681Z,81.05
2017-09-08T07:58:11.260Z,81.4
2017-09-08T07:58:51.836Z,81.4
2017-09-08T07:59:32.398Z,81.25
2017-09-08T08:00:12.979Z,80.77
2017-09-08T08:00:53.574Z,81.05
2017-09-08T08:01:34.149Z,80.96
2017-09-08T08:02:14.728Z,81.44
2017-09-08T08:02:55.292Z,81.63
2017-09-08T08:03:35.871Z,81.73
2017-09-08T08:04:16.445Z,81.82
2017-09-08T08:04:57.005Z,81.54
2017-09-08T08:05:37.584Z,81.34
2017-09-08T08:06:18.219Z,81.25
2017-09-08T08:06:58.786Z,81.34
2017-09-08T08:07:39.349Z,81.44
2017-09-08T08:08:19.914Z,80.96
2017-09-08T08:09:00.493Z,80.87
2017-09-08T08:09:41.053Z,80.67
2017-09-08T08:10:21.622Z,80.77
2017-09-08T08:11:02.202Z,80.96
2017-09-08T08:11:42.796Z,81.15
2017-09-08T08:12:23.379Z,81.15
2017-09-08T08:13:03.952Z,80.58
2017-09-08T08:13:44.544Z,81.05
2017-09-08T08:14:25.123Z,80.96
2017-09-08T08:15:05.689Z,80.77
2017-09-08T08:15:46.293Z,80.67
2017-09-08T08:16:26.871Z,80.77
2017-09-08T08:17:07.429Z,80.77
2017-09-08T08:17:48.003Z,80.77
2017-09-08T08:18:28.587Z,80.58
2017-09-08T08:19:09.181Z,80.48
2017-09-08T08:19:49.746Z,80.48
2017-09-08T08:20:30.311Z,80.1
2017-09-08T08:21:10.894Z,80.67
2017-09-08T08:21:51.449Z,80.81
2017-09-08T08:22:32.020Z,79.95
2017-09-08T08:23:12.573Z,80.1
2017-09-08T08:23:53.138Z,80.48
2017-09-08T08:24:33.718Z,80.77
2017-09-08T08:25:14.282Z,80.33
2017-09-08T08:25:54.868Z,80.14
2017-09-08T08:26:35.456Z,79.57
2017-09-08T08:27:16.021Z,79.66
2017-09-08T08:27:56.569Z,79.66
2017-09-08T08:28:37.129Z,79.33
2017-09-08T08:29:17.695Z,79.66
2017-09-08T08:29:58.265Z,79.52
2017-09-08T08:30:38.836Z,79.62
2017-09-08T08:31:19.419Z,79.85
2017-09-08T08:31:59.974Z,80.04
2017-09-08T08:32:40.538Z,79.85
2017-09-08T08:33:21.102Z,79.72
2017-09-08T08:34:01.681Z,79.95
2017-09-08T08:34:42.254Z,80.04
2017-09-08T08:35:22.817Z,80.19
2017-09-08T08:36:03.383Z,80.29
2017-09-08T08:36:44.007Z,80.29
2017-09-08T08:37:24.580Z,79.81
2017-09-08T08:38:05.135Z,80.24
2017-09-08T08:38:45.694Z,80.62
2017-09-08T08:39:26.267Z,80.71
2017-09-08T08:40:06.830Z,80.67
2017-09-08T08:40:47.426Z,80.67
2017-09-08T08:41:28.000Z,80.96
2017-09-08T08:42:08.573Z,81
2017-09-08T08:42:49.135Z,81
2017-09-08T08:43:29.690Z,80.9
2017-09-08T08:44:10.257Z,81.2
2017-09-08T08:44:50.821Z,80.9
2017-09-08T08:45:31.398Z,81.29